sensor_id;sensor_type;location;lat;lon;timestamp;temperature;humidity
20487;DHT22;10402;49.012;8.370;2023-09-18T00:00:21;22.60;73.60
20487;DHT22;10402;49.012;8.370;2023-09-18T00:02:47;22.50;73.40
20487;DHT22;10402;49.012;8.370;2023-09-18T00:05:13;22.50;73.60
20487;DHT22;10402;49.012;8.370;2023-09-18T00:07:44;22.50;73.60
20487;DHT22;10402;49.012;8.370;2023-09-18T00:10:11;22.50;73.60
20487;DHT22;10402;49.012;8.370;2023-09-18T00:12:37;22.50;73.60
20487;DHT22;10402;49.012;8.370;2023-09-18T00:15:03;22.50;73.70
20487;DHT22;10402;49.012;8.370;2023-09-18T00:17:29;22.50;73.80
20487;DHT22;10402;49.012;8.370;2023-09-18T00:19:55;22.50;73.90
20487;DHT22;10402;49.012;8.370;2023-09-18T00:22:20;22.50;74.10
20487;DHT22;10402;49.012;8.370;2023-09-18T00:24:47;22.40;74.00
20487;DHT22;10402;49.012;8.370;2023-09-18T00:27:13;22.40;74.20
20487;DHT22;10402;49.012;8.370;2023-09-18T00:29:39;22.40;74.40
20487;DHT22;10402;49.012;8.370;2023-09-18T00:32:05;22.40;74.50
20487;DHT22;10402;49.012;8.370;2023-09-18T00:34:31;22.40;74.50
20487;DHT22;10402;49.012;8.370;2023-09-18T00:37:00;22.40;74.60
20487;DHT22;10402;49.012;8.370;2023-09-18T00:39:26;22.30;74.60
20487;DHT22;10402;49.012;8.370;2023-09-18T00:41:52;22.40;74.70
20487;DHT22;10402;49.012;8.370;2023-09-18T00:44:20;22.40;74.60
20487;DHT22;10402;49.012;8.370;2023-09-18T00:46:47;22.40;74.60
20487;DHT22;10402;49.012;8.370;2023-09-18T00:49:12;22.40;74.60
20487;DHT22;10402;49.012;8.370;2023-09-18T00:51:39;22.40;74.70
20487;DHT22;10402;49.012;8.370;2023-09-18T00:54:05;22.50;74.80
20487;DHT22;10402;49.012;8.370;2023-09-18T00:56:32;22.50;74.80
20487;DHT22;10402;49.012;8.370;2023-09-18T00:58:59;22.50;74.80
20487;DHT22;10402;49.012;8.370;2023-09-18T01:01:25;22.50;74.80
20487;DHT22;10402;49.012;8.370;2023-09-18T01:03:51;22.50;74.80
20487;DHT22;10402;49.012;8.370;2023-09-18T01:06:18;22.60;75.00
20487;DHT22;10402;49.012;8.370;2023-09-18T01:08:45;22.60;75.20
20487;DHT22;10402;49.012;8.370;2023-09-18T01:11:36;22.60;75.40
20487;DHT22;10402;49.012;8.370;2023-09-18T01:16:59;22.60;75.40
20487;DHT22;10402;49.012;8.370;2023-09-18T01:19:43;22.60;75.80
20487;DHT22;10402;49.012;8.370;2023-09-18T01:22:11;22.60;76.00
20487;DHT22;10402;49.012;8.370;2023-09-18T01:24:38;22.50;76.20
20487;DHT22;10402;49.012;8.370;2023-09-18T01:27:08;22.50;76.40
20487;DHT22;10402;49.012;8.370;2023-09-18T01:29:33;22.50;76.50
20487;DHT22;10402;49.012;8.370;2023-09-18T01:31:59;22.50;76.70
20487;DHT22;10402;49.012;8.370;2023-09-18T01:34:46;22.50;76.90
20487;DHT22;10402;49.012;8.370;2023-09-18T01:37:12;22.40;77.00
20487;DHT22;10402;49.012;8.370;2023-09-18T01:39:39;22.40;77.30
20487;DHT22;10402;49.012;8.370;2023-09-18T01:42:05;22.40;77.50
20487;DHT22;10402;49.012;8.370;2023-09-18T01:44:32;22.30;77.70
20487;DHT22;10402;49.012;8.370;2023-09-18T01:46:59;22.30;78.00
20487;DHT22;10402;49.012;8.370;2023-09-18T01:49:28;22.30;78.00
20487;DHT22;10402;49.012;8.370;2023-09-18T01:51:54;22.30;78.00
20487;DHT22;10402;49.012;8.370;2023-09-18T01:54:19;22.20;78.10
20487;DHT22;10402;49.012;8.370;2023-09-18T01:56:45;22.20;78.30
20487;DHT22;10402;49.012;8.370;2023-09-18T01:59:10;22.20;78.40
20487;DHT22;10402;49.012;8.370;2023-09-18T02:01:36;22.20;78.50
20487;DHT22;10402;49.012;8.370;2023-09-18T02:04:04;22.20;78.50
20487;DHT22;10402;49.012;8.370;2023-09-18T02:06:29;22.30;79.10
20487;DHT22;10402;49.012;8.370;2023-09-18T02:08:55;22.20;79.40
20487;DHT22;10402;49.012;8.370;2023-09-18T02:11:21;22.10;80.00
20487;DHT22;10402;49.012;8.370;2023-09-18T02:13:46;22.10;80.40
20487;DHT22;10402;49.012;8.370;2023-09-18T02:16:12;22.10;80.90
20487;DHT22;10402;49.012;8.370;2023-09-18T02:18:37;22.00;80.90
20487;DHT22;10402;49.012;8.370;2023-09-18T02:21:03;22.00;81.40
20487;DHT22;10402;49.012;8.370;2023-09-18T02:23:28;21.90;81.50
20487;DHT22;10402;49.012;8.370;2023-09-18T02:25:58;21.90;81.80
20487;DHT22;10402;49.012;8.370;2023-09-18T02:28:23;21.90;82.10
20487;DHT22;10402;49.012;8.370;2023-09-18T02:30:49;21.90;82.40
20487;DHT22;10402;49.012;8.370;2023-09-18T02:33:15;21.80;82.30
20487;DHT22;10402;49.012;8.370;2023-09-18T02:35:41;21.80;82.60
20487;DHT22;10402;49.012;8.370;2023-09-18T02:38:08;21.80;82.60
20487;DHT22;10402;49.012;8.370;2023-09-18T02:40:34;21.90;82.80
20487;DHT22;10402;49.012;8.370;2023-09-18T02:42:59;21.80;82.90
20487;DHT22;10402;49.012;8.370;2023-09-18T02:45:25;21.80;82.80
20487;DHT22;10402;49.012;8.370;2023-09-18T02:47:50;21.90;82.90
20487;DHT22;10402;49.012;8.370;2023-09-18T02:50:16;21.90;82.90
20487;DHT22;10402;49.012;8.370;2023-09-18T02:52:42;21.90;82.90
20487;DHT22;10402;49.012;8.370;2023-09-18T02:55:07;21.90;82.80
20487;DHT22;10402;49.012;8.370;2023-09-18T02:57:35;21.90;83.30
20487;DHT22;10402;49.012;8.370;2023-09-18T03:00:00;21.80;83.40
20487;DHT22;10402;49.012;8.370;2023-09-18T03:02:26;21.80;83.90
20487;DHT22;10402;49.012;8.370;2023-09-18T03:04:51;21.80;84.20
20487;DHT22;10402;49.012;8.370;2023-09-18T03:07:17;21.80;84.20
20487;DHT22;10402;49.012;8.370;2023-09-18T03:09:42;21.80;84.30
20487;DHT22;10402;49.012;8.370;2023-09-18T03:12:08;21.80;84.50
20487;DHT22;10402;49.012;8.370;2023-09-18T03:14:34;21.80;84.40
20487;DHT22;10402;49.012;8.370;2023-09-18T03:16:59;21.80;84.40
20487;DHT22;10402;49.012;8.370;2023-09-18T03:19:25;21.80;84.60
20487;DHT22;10402;49.012;8.370;2023-09-18T03:21:52;21.80;84.60
20487;DHT22;10402;49.012;8.370;2023-09-18T03:24:17;21.80;84.60
20487;DHT22;10402;49.012;8.370;2023-09-18T03:26:43;21.90;84.50
20487;DHT22;10402;49.012;8.370;2023-09-18T03:29:09;21.80;84.40
20487;DHT22;10402;49.012;8.370;2023-09-18T03:31:35;21.80;84.30
20487;DHT22;10402;49.012;8.370;2023-09-18T03:34:01;21.80;84.40
20487;DHT22;10402;49.012;8.370;2023-09-18T03:36:26;21.70;84.50
20487;DHT22;10402;49.012;8.370;2023-09-18T03:38:52;21.70;84.70
20487;DHT22;10402;49.012;8.370;2023-09-18T03:41:17;21.60;84.80
20487;DHT22;10402;49.012;8.370;2023-09-18T03:43:43;21.60;85.10
20487;DHT22;10402;49.012;8.370;2023-09-18T03:46:08;21.60;85.40
20487;DHT22;10402;49.012;8.370;2023-09-18T03:48:34;21.60;85.70
20487;DHT22;10402;49.012;8.370;2023-09-18T03:51:05;21.60;86.00
20487;DHT22;10402;49.012;8.370;2023-09-18T03:53:34;21.60;86.90
20487;DHT22;10402;49.012;8.370;2023-09-18T03:56:00;21.60;87.60
20487;DHT22;10402;49.012;8.370;2023-09-18T03:58:25;21.50;88.00
20487;DHT22;10402;49.012;8.370;2023-09-18T04:00:52;21.50;88.70
20487;DHT22;10402;49.012;8.370;2023-09-18T04:03:17;21.40;89.00
20487;DHT22;10402;49.012;8.370;2023-09-18T04:05:44;21.30;89.50
20487;DHT22;10402;49.012;8.370;2023-09-18T04:08:09;21.20;90.10
20487;DHT22;10402;49.012;8.370;2023-09-18T04:10:36;21.10;90.20
20487;DHT22;10402;49.012;8.370;2023-09-18T04:13:02;21.10;90.50
20487;DHT22;10402;49.012;8.370;2023-09-18T04:15:27;20.90;90.60
20487;DHT22;10402;49.012;8.370;2023-09-18T04:17:56;20.90;90.90
20487;DHT22;10402;49.012;8.370;2023-09-18T04:20:21;20.80;91.00
20487;DHT22;10402;49.012;8.370;2023-09-18T04:23:22;20.80;91.10
20487;DHT22;10402;49.012;8.370;2023-09-18T04:25:48;20.80;91.20
20487;DHT22;10402;49.012;8.370;2023-09-18T04:28:17;20.80;91.50
20487;DHT22;10402;49.012;8.370;2023-09-18T04:30:44;20.80;91.60
20487;DHT22;10402;49.012;8.370;2023-09-18T04:33:10;20.80;91.70
20487;DHT22;10402;49.012;8.370;2023-09-18T04:35:37;20.80;91.80
20487;DHT22;10402;49.012;8.370;2023-09-18T04:38:05;20.80;91.90
20487;DHT22;10402;49.012;8.370;2023-09-18T04:40:31;20.80;91.90
20487;DHT22;10402;49.012;8.370;2023-09-18T04:43:01;20.80;92.00
20487;DHT22;10402;49.012;8.370;2023-09-18T04:45:27;20.90;92.20
20487;DHT22;10402;49.012;8.370;2023-09-18T04:47:55;20.90;92.20
20487;DHT22;10402;49.012;8.370;2023-09-18T04:50:21;20.90;92.30
20487;DHT22;10402;49.012;8.370;2023-09-18T04:52:47;20.90;92.30
20487;DHT22;10402;49.012;8.370;2023-09-18T04:55:13;20.90;92.40
20487;DHT22;10402;49.012;8.370;2023-09-18T04:57:39;20.90;92.50
20487;DHT22;10402;49.012;8.370;2023-09-18T05:00:05;21.00;92.60
20487;DHT22;10402;49.012;8.370;2023-09-18T05:02:33;21.00;92.70
20487;DHT22;10402;49.012;8.370;2023-09-18T05:05:00;21.00;92.70
20487;DHT22;10402;49.012;8.370;2023-09-18T05:07:25;21.00;92.80
20487;DHT22;10402;49.012;8.370;2023-09-18T05:09:51;21.00;92.80
20487;DHT22;10402;49.012;8.370;2023-09-18T05:12:17;21.00;92.90
20487;DHT22;10402;49.012;8.370;2023-09-18T05:14:43;21.00;92.90
20487;DHT22;10402;49.012;8.370;2023-09-18T05:17:14;21.00;93.00
20487;DHT22;10402;49.012;8.370;2023-09-18T05:19:40;21.00;93.00
20487;DHT22;10402;49.012;8.370;2023-09-18T05:22:07;21.00;93.10
20487;DHT22;10402;49.012;8.370;2023-09-18T05:24:33;21.00;93.10
20487;DHT22;10402;49.012;8.370;2023-09-18T05:26:58;21.00;93.00
20487;DHT22;10402;49.012;8.370;2023-09-18T05:29:24;21.00;93.00
20487;DHT22;10402;49.012;8.370;2023-09-18T05:31:50;21.10;93.00
20487;DHT22;10402;49.012;8.370;2023-09-18T05:34:15;21.10;93.00
20487;DHT22;10402;49.012;8.370;2023-09-18T05:36:41;21.10;93.00
20487;DHT22;10402;49.012;8.370;2023-09-18T05:39:06;21.10;93.00
20487;DHT22;10402;49.012;8.370;2023-09-18T05:41:39;21.10;93.00
20487;DHT22;10402;49.012;8.370;2023-09-18T05:44:05;21.10;93.00
20487;DHT22;10402;49.012;8.370;2023-09-18T05:46:34;21.10;93.00
20487;DHT22;10402;49.012;8.370;2023-09-18T05:49:00;21.10;93.10
20487;DHT22;10402;49.012;8.370;2023-09-18T05:51:26;21.00;93.00
20487;DHT22;10402;49.012;8.370;2023-09-18T05:53:51;21.00;93.10
20487;DHT22;10402;49.012;8.370;2023-09-18T05:56:17;21.00;93.00
20487;DHT22;10402;49.012;8.370;2023-09-18T05:58:43;21.00;93.00
20487;DHT22;10402;49.012;8.370;2023-09-18T06:01:09;21.00;93.10
20487;DHT22;10402;49.012;8.370;2023-09-18T06:03:34;21.10;93.20
20487;DHT22;10402;49.012;8.370;2023-09-18T06:06:03;21.00;93.20
20487;DHT22;10402;49.012;8.370;2023-09-18T06:08:29;21.00;93.30
20487;DHT22;10402;49.012;8.370;2023-09-18T06:10:58;21.00;93.30
20487;DHT22;10402;49.012;8.370;2023-09-18T06:13:25;21.00;93.40
20487;DHT22;10402;49.012;8.370;2023-09-18T06:15:52;21.00;93.40
20487;DHT22;10402;49.012;8.370;2023-09-18T06:18:22;21.00;93.40
20487;DHT22;10402;49.012;8.370;2023-09-18T06:20:48;21.00;93.50
20487;DHT22;10402;49.012;8.370;2023-09-18T06:23:14;21.00;93.50
20487;DHT22;10402;49.012;8.370;2023-09-18T06:25:40;21.00;93.50
20487;DHT22;10402;49.012;8.370;2023-09-18T06:28:06;21.00;94.00
20487;DHT22;10402;49.012;8.370;2023-09-18T06:30:32;20.90;94.00
20487;DHT22;10402;49.012;8.370;2023-09-18T06:32:59;20.90;93.80
20487;DHT22;10402;49.012;8.370;2023-09-18T06:35:24;21.00;93.80
20487;DHT22;10402;49.012;8.370;2023-09-18T06:37:50;20.90;93.80
20487;DHT22;10402;49.012;8.370;2023-09-18T06:40:16;20.90;93.90
20487;DHT22;10402;49.012;8.370;2023-09-18T06:42:41;20.90;93.90
20487;DHT22;10402;49.012;8.370;2023-09-18T06:45:07;20.90;93.90
20487;DHT22;10402;49.012;8.370;2023-09-18T06:47:33;20.90;94.00
20487;DHT22;10402;49.012;8.370;2023-09-18T06:49:59;20.90;94.10
20487;DHT22;10402;49.012;8.370;2023-09-18T06:52:29;20.90;94.10
20487;DHT22;10402;49.012;8.370;2023-09-18T06:54:55;20.90;94.00
20487;DHT22;10402;49.012;8.370;2023-09-18T06:57:21;20.90;94.00
20487;DHT22;10402;49.012;8.370;2023-09-18T06:59:46;20.90;94.10
20487;DHT22;10402;49.012;8.370;2023-09-18T07:02:12;20.90;94.20
20487;DHT22;10402;49.012;8.370;2023-09-18T07:04:40;20.90;94.20
20487;DHT22;10402;49.012;8.370;2023-09-18T07:07:11;20.90;94.10
20487;DHT22;10402;49.012;8.370;2023-09-18T07:09:37;20.90;94.20
20487;DHT22;10402;49.012;8.370;2023-09-18T07:12:03;20.90;94.20
20487;DHT22;10402;49.012;8.370;2023-09-18T07:14:29;21.00;94.20
20487;DHT22;10402;49.012;8.370;2023-09-18T07:16:54;21.00;94.20
20487;DHT22;10402;49.012;8.370;2023-09-18T07:19:20;21.00;94.20
20487;DHT22;10402;49.012;8.370;2023-09-18T07:21:45;21.00;94.20
20487;DHT22;10402;49.012;8.370;2023-09-18T07:24:11;21.00;94.20
20487;DHT22;10402;49.012;8.370;2023-09-18T07:26:45;21.00;94.20
20487;DHT22;10402;49.012;8.370;2023-09-18T07:29:11;21.10;94.20
20487;DHT22;10402;49.012;8.370;2023-09-18T07:31:37;21.10;94.10
20487;DHT22;10402;49.012;8.370;2023-09-18T07:34:02;21.10;94.00
20487;DHT22;10402;49.012;8.370;2023-09-18T07:36:29;21.20;94.00
20487;DHT22;10402;49.012;8.370;2023-09-18T07:38:55;21.20;93.80
20487;DHT22;10402;49.012;8.370;2023-09-18T07:41:22;21.20;93.70
20487;DHT22;10402;49.012;8.370;2023-09-18T07:43:47;21.20;93.60
20487;DHT22;10402;49.012;8.370;2023-09-18T07:46:13;21.20;93.40
20487;DHT22;10402;49.012;8.370;2023-09-18T07:48:39;21.30;93.40
20487;DHT22;10402;49.012;8.370;2023-09-18T07:51:04;21.30;93.20
20487;DHT22;10402;49.012;8.370;2023-09-18T07:53:30;21.30;93.10
20487;DHT22;10402;49.012;8.370;2023-09-18T07:55:57;21.30;93.00
20487;DHT22;10402;49.012;8.370;2023-09-18T07:58:24;21.30;93.00
20487;DHT22;10402;49.012;8.370;2023-09-18T08:00:56;21.30;92.80
20487;DHT22;10402;49.012;8.370;2023-09-18T08:03:25;21.30;92.60
20487;DHT22;10402;49.012;8.370;2023-09-18T08:05:54;21.30;92.50
20487;DHT22;10402;49.012;8.370;2023-09-18T08:08:21;21.30;92.40
20487;DHT22;10402;49.012;8.370;2023-09-18T08:10:49;21.30;92.40
20487;DHT22;10402;49.012;8.370;2023-09-18T08:13:15;21.30;92.40
20487;DHT22;10402;49.012;8.370;2023-09-18T08:15:41;21.30;92.40
20487;DHT22;10402;49.012;8.370;2023-09-18T08:18:06;21.30;92.40
20487;DHT22;10402;49.012;8.370;2023-09-18T08:20:32;21.30;92.40
20487;DHT22;10402;49.012;8.370;2023-09-18T08:22:59;21.30;92.30
20487;DHT22;10402;49.012;8.370;2023-09-18T08:25:28;21.30;92.20
20487;DHT22;10402;49.012;8.370;2023-09-18T08:27:54;21.30;92.20
20487;DHT22;10402;49.012;8.370;2023-09-18T08:30:19;21.20;92.10
20487;DHT22;10402;49.012;8.370;2023-09-18T08:32:46;21.20;92.10
20487;DHT22;10402;49.012;8.370;2023-09-18T08:35:13;21.30;92.00
20487;DHT22;10402;49.012;8.370;2023-09-18T08:37:40;21.30;91.90
20487;DHT22;10402;49.012;8.370;2023-09-18T08:40:11;21.30;91.80
20487;DHT22;10402;49.012;8.370;2023-09-18T08:42:47;21.30;91.80
20487;DHT22;10402;49.012;8.370;2023-09-18T08:45:19;21.30;91.70
20487;DHT22;10402;49.012;8.370;2023-09-18T08:47:46;21.30;91.70
20487;DHT22;10402;49.012;8.370;2023-09-18T08:50:13;21.30;91.60
20487;DHT22;10402;49.012;8.370;2023-09-18T08:52:40;21.30;91.60
20487;DHT22;10402;49.012;8.370;2023-09-18T08:55:06;21.30;91.60
20487;DHT22;10402;49.012;8.370;2023-09-18T08:57:33;21.30;91.60
20487;DHT22;10402;49.012;8.370;2023-09-18T09:00:00;21.40;91.60
20487;DHT22;10402;49.012;8.370;2023-09-18T09:02:33;21.40;91.50
20487;DHT22;10402;49.012;8.370;2023-09-18T09:04:58;21.40;91.40
20487;DHT22;10402;49.012;8.370;2023-09-18T09:07:25;21.40;91.40
20487;DHT22;10402;49.012;8.370;2023-09-18T09:09:50;21.40;91.40
20487;DHT22;10402;49.012;8.370;2023-09-18T09:15:03;21.40;91.20
20487;DHT22;10402;49.012;8.370;2023-09-18T09:17:29;21.40;91.10
20487;DHT22;10402;49.012;8.370;2023-09-18T09:20:12;21.40;91.10
20487;DHT22;10402;49.012;8.370;2023-09-18T09:22:39;21.40;91.00
20487;DHT22;10402;49.012;8.370;2023-09-18T09:27:47;21.50;90.80
20487;DHT22;10402;49.012;8.370;2023-09-18T09:30:22;21.40;90.60
20487;DHT22;10402;49.012;8.370;2023-09-18T09:32:50;21.40;90.70
20487;DHT22;10402;49.012;8.370;2023-09-18T09:37:45;21.50;90.50
20487;DHT22;10402;49.012;8.370;2023-09-18T09:40:12;21.40;90.40
20487;DHT22;10402;49.012;8.370;2023-09-18T09:42:40;21.50;90.40
20487;DHT22;10402;49.012;8.370;2023-09-18T09:45:14;21.50;90.30
20487;DHT22;10402;49.012;8.370;2023-09-18T09:47:43;21.50;90.30
20487;DHT22;10402;49.012;8.370;2023-09-18T09:50:13;21.60;90.20
20487;DHT22;10402;49.012;8.370;2023-09-18T09:52:49;21.60;90.10
20487;DHT22;10402;49.012;8.370;2023-09-18T09:55:32;21.60;90.00
20487;DHT22;10402;49.012;8.370;2023-09-18T09:58:06;21.70;89.90
20487;DHT22;10402;49.012;8.370;2023-09-18T10:00:45;21.70;89.70
20487;DHT22;10402;49.012;8.370;2023-09-18T10:03:14;21.70;89.50
20487;DHT22;10402;49.012;8.370;2023-09-18T10:05:46;21.70;89.30
20487;DHT22;10402;49.012;8.370;2023-09-18T10:08:21;21.70;89.00
20487;DHT22;10402;49.012;8.370;2023-09-18T10:10:49;21.70;89.00
20487;DHT22;10402;49.012;8.370;2023-09-18T10:13:16;21.80;88.50
20487;DHT22;10402;49.012;8.370;2023-09-18T10:15:42;21.80;88.40
20487;DHT22;10402;49.012;8.370;2023-09-18T10:21:31;21.80;88.10
20487;DHT22;10402;49.012;8.370;2023-09-18T10:24:13;21.80;87.90
20487;DHT22;10402;49.012;8.370;2023-09-18T10:26:54;21.90;87.60
20487;DHT22;10402;49.012;8.370;2023-09-18T10:29:22;21.90;87.20
20487;DHT22;10402;49.012;8.370;2023-09-18T10:31:50;21.90;86.90
20487;DHT22;10402;49.012;8.370;2023-09-18T10:34:17;22.00;86.40
20487;DHT22;10402;49.012;8.370;2023-09-18T10:36:46;22.00;86.30
20487;DHT22;10402;49.012;8.370;2023-09-18T10:39:12;22.00;86.30
20487;DHT22;10402;49.012;8.370;2023-09-18T10:41:38;22.00;85.70
20487;DHT22;10402;49.012;8.370;2023-09-18T10:44:05;22.10;85.50
20487;DHT22;10402;49.012;8.370;2023-09-18T10:46:31;22.10;85.30
20487;DHT22;10402;49.012;8.370;2023-09-18T10:48:59;22.20;85.10
20487;DHT22;10402;49.012;8.370;2023-09-18T10:51:25;22.20;84.90
20487;DHT22;10402;49.012;8.370;2023-09-18T10:53:50;22.20;84.60
20487;DHT22;10402;49.012;8.370;2023-09-18T10:56:20;22.20;84.20
20487;DHT22;10402;49.012;8.370;2023-09-18T10:58:46;22.30;84.20
20487;DHT22;10402;49.012;8.370;2023-09-18T11:01:12;22.30;83.80
20487;DHT22;10402;49.012;8.370;2023-09-18T11:03:38;22.30;83.50
20487;DHT22;10402;49.012;8.370;2023-09-18T11:06:10;22.30;83.30
20487;DHT22;10402;49.012;8.370;2023-09-18T11:09:04;22.40;83.20
20487;DHT22;10402;49.012;8.370;2023-09-18T11:11:32;22.40;83.00
20487;DHT22;10402;49.012;8.370;2023-09-18T11:14:01;22.40;82.50
20487;DHT22;10402;49.012;8.370;2023-09-18T11:21:30;22.50;81.90
20487;DHT22;10402;49.012;8.370;2023-09-18T11:26:34;22.60;81.40
20487;DHT22;10402;49.012;8.370;2023-09-18T11:29:03;22.60;81.30
20487;DHT22;10402;49.012;8.370;2023-09-18T11:31:47;22.70;81.00
20487;DHT22;10402;49.012;8.370;2023-09-18T11:34:34;22.70;80.40
20487;DHT22;10402;49.012;8.370;2023-09-18T11:37:01;22.70;80.10
20487;DHT22;10402;49.012;8.370;2023-09-18T11:39:34;22.80;80.20
20487;DHT22;10402;49.012;8.370;2023-09-18T11:42:20;22.80;79.50
20487;DHT22;10402;49.012;8.370;2023-09-18T11:44:49;22.80;79.50
20487;DHT22;10402;49.012;8.370;2023-09-18T11:47:19;22.90;79.00
20487;DHT22;10402;49.012;8.370;2023-09-18T11:49:53;22.90;78.60
20487;DHT22;10402;49.012;8.370;2023-09-18T11:52:28;22.90;78.40
20487;DHT22;10402;49.012;8.370;2023-09-18T11:54:57;22.90;78.00
20487;DHT22;10402;49.012;8.370;2023-09-18T11:57:23;23.00;77.70
20487;DHT22;10402;49.012;8.370;2023-09-18T11:59:49;23.00;77.80
20487;DHT22;10402;49.012;8.370;2023-09-18T12:04:53;23.00;77.20
20487;DHT22;10402;49.012;8.370;2023-09-18T12:07:19;23.10;76.90
20487;DHT22;10402;49.012;8.370;2023-09-18T12:09:45;23.10;76.60
20487;DHT22;10402;49.012;8.370;2023-09-18T12:12:11;23.10;76.40
20487;DHT22;10402;49.012;8.370;2023-09-18T12:14:40;23.20;76.00
20487;DHT22;10402;49.012;8.370;2023-09-18T12:17:14;23.20;75.90
20487;DHT22;10402;49.012;8.370;2023-09-18T12:19:53;23.20;76.20
20487;DHT22;10402;49.012;8.370;2023-09-18T12:22:26;23.20;75.30
20487;DHT22;10402;49.012;8.370;2023-09-18T12:24:52;23.20;75.20
20487;DHT22;10402;49.012;8.370;2023-09-18T12:27:18;23.20;75.10
20487;DHT22;10402;49.012;8.370;2023-09-18T12:29:44;23.20;75.00
20487;DHT22;10402;49.012;8.370;2023-09-18T12:32:10;23.20;74.50
20487;DHT22;10402;49.012;8.370;2023-09-18T12:34:40;23.20;74.20
20487;DHT22;10402;49.012;8.370;2023-09-18T12:37:07;23.20;74.10
20487;DHT22;10402;49.012;8.370;2023-09-18T12:39:35;23.20;74.30
20487;DHT22;10402;49.012;8.370;2023-09-18T12:42:00;23.20;74.10
20487;DHT22;10402;49.012;8.370;2023-09-18T12:44:26;23.30;74.10
20487;DHT22;10402;49.012;8.370;2023-09-18T12:46:52;23.30;74.30
20487;DHT22;10402;49.012;8.370;2023-09-18T12:49:24;23.40;74.10
20487;DHT22;10402;49.012;8.370;2023-09-18T12:52:01;23.40;73.80
20487;DHT22;10402;49.012;8.370;2023-09-18T12:54:45;23.50;73.60
20487;DHT22;10402;49.012;8.370;2023-09-18T12:57:18;23.50;73.30
20487;DHT22;10402;49.012;8.370;2023-09-18T12:59:43;23.50;73.00
20487;DHT22;10402;49.012;8.370;2023-09-18T13:02:12;23.50;73.10
20487;DHT22;10402;49.012;8.370;2023-09-18T13:04:38;23.60;73.00
20487;DHT22;10402;49.012;8.370;2023-09-18T13:07:12;23.60;72.80
20487;DHT22;10402;49.012;8.370;2023-09-18T13:09:41;23.70;72.80
20487;DHT22;10402;49.012;8.370;2023-09-18T13:12:08;23.80;72.60
20487;DHT22;10402;49.012;8.370;2023-09-18T13:15:02;23.80;72.20
20487;DHT22;10402;49.012;8.370;2023-09-18T13:17:43;23.90;72.10
20487;DHT22;10402;49.012;8.370;2023-09-18T13:20:14;23.90;72.00
20487;DHT22;10402;49.012;8.370;2023-09-18T13:22:41;23.90;71.70
20487;DHT22;10402;49.012;8.370;2023-09-18T13:25:08;23.90;71.60
20487;DHT22;10402;49.012;8.370;2023-09-18T13:27:34;23.90;71.40
20487;DHT22;10402;49.012;8.370;2023-09-18T13:29:59;23.90;71.50
20487;DHT22;10402;49.012;8.370;2023-09-18T13:32:35;23.90;71.40
20487;DHT22;10402;49.012;8.370;2023-09-18T13:35:02;24.00;71.30
20487;DHT22;10402;49.012;8.370;2023-09-18T13:37:31;24.00;71.40
20487;DHT22;10402;49.012;8.370;2023-09-18T13:39:57;24.00;71.30
20487;DHT22;10402;49.012;8.370;2023-09-18T13:42:22;24.00;71.20
20487;DHT22;10402;49.012;8.370;2023-09-18T13:44:48;24.10;71.00
20487;DHT22;10402;49.012;8.370;2023-09-18T13:47:14;24.10;71.00
20487;DHT22;10402;49.012;8.370;2023-09-18T13:49:40;24.20;71.10
20487;DHT22;10402;49.012;8.370;2023-09-18T13:52:06;24.20;70.80
20487;DHT22;10402;49.012;8.370;2023-09-18T13:54:31;24.20;70.80
20487;DHT22;10402;49.012;8.370;2023-09-18T13:56:57;24.20;70.60
20487;DHT22;10402;49.012;8.370;2023-09-18T13:59:22;24.20;70.30
20487;DHT22;10402;49.012;8.370;2023-09-18T14:01:48;24.20;70.00
20487;DHT22;10402;49.012;8.370;2023-09-18T14:04:13;24.20;70.20
20487;DHT22;10402;49.012;8.370;2023-09-18T14:06:39;24.20;70.40
20487;DHT22;10402;49.012;8.370;2023-09-18T14:09:04;24.20;70.20
20487;DHT22;10402;49.012;8.370;2023-09-18T14:11:31;24.30;70.20
20487;DHT22;10402;49.012;8.370;2023-09-18T14:13:57;24.20;69.90
20487;DHT22;10402;49.012;8.370;2023-09-18T14:16:22;24.20;70.00
20487;DHT22;10402;49.012;8.370;2023-09-18T14:18:48;24.20;70.90
20487;DHT22;10402;49.012;8.370;2023-09-18T14:21:13;24.30;70.10
20487;DHT22;10402;49.012;8.370;2023-09-18T14:23:39;24.20;70.00
20487;DHT22;10402;49.012;8.370;2023-09-18T14:26:05;24.20;70.20
20487;DHT22;10402;49.012;8.370;2023-09-18T14:28:31;24.20;70.10
20487;DHT22;10402;49.012;8.370;2023-09-18T14:30:58;24.20;70.20
20487;DHT22;10402;49.012;8.370;2023-09-18T14:33:23;24.20;70.20
20487;DHT22;10402;49.012;8.370;2023-09-18T14:35:49;24.20;70.30
20487;DHT22;10402;49.012;8.370;2023-09-18T14:38:15;24.20;70.40
20487;DHT22;10402;49.012;8.370;2023-09-18T14:40:41;24.20;70.60
20487;DHT22;10402;49.012;8.370;2023-09-18T14:43:08;24.20;70.20
20487;DHT22;10402;49.012;8.370;2023-09-18T14:45:33;24.20;70.30
20487;DHT22;10402;49.012;8.370;2023-09-18T14:48:00;24.20;70.20
20487;DHT22;10402;49.012;8.370;2023-09-18T14:50:25;24.20;70.40
20487;DHT22;10402;49.012;8.370;2023-09-18T14:52:51;24.20;70.20
20487;DHT22;10402;49.012;8.370;2023-09-18T14:55:16;24.10;70.10
20487;DHT22;10402;49.012;8.370;2023-09-18T14:57:42;24.20;70.20
20487;DHT22;10402;49.012;8.370;2023-09-18T15:00:08;24.20;70.20
20487;DHT22;10402;49.012;8.370;2023-09-18T15:02:34;24.20;70.20
20487;DHT22;10402;49.012;8.370;2023-09-18T15:05:00;24.10;70.10
20487;DHT22;10402;49.012;8.370;2023-09-18T15:07:26;24.10;69.90
20487;DHT22;10402;49.012;8.370;2023-09-18T15:09:52;24.10;69.80
20487;DHT22;10402;49.012;8.370;2023-09-18T15:12:17;24.10;69.80
20487;DHT22;10402;49.012;8.370;2023-09-18T15:14:43;24.10;69.60
20487;DHT22;10402;49.012;8.370;2023-09-18T15:17:09;24.10;69.80
20487;DHT22;10402;49.012;8.370;2023-09-18T15:19:34;24.10;69.80
20487;DHT22;10402;49.012;8.370;2023-09-18T15:22:00;24.10;69.70
20487;DHT22;10402;49.012;8.370;2023-09-18T15:24:26;24.10;69.40
20487;DHT22;10402;49.012;8.370;2023-09-18T15:26:52;24.20;69.50
20487;DHT22;10402;49.012;8.370;2023-09-18T15:29:17;24.10;69.30
20487;DHT22;10402;49.012;8.370;2023-09-18T15:31:43;24.20;69.40
20487;DHT22;10402;49.012;8.370;2023-09-18T15:34:11;24.20;69.30
20487;DHT22;10402;49.012;8.370;2023-09-18T15:36:37;24.20;69.10
20487;DHT22;10402;49.012;8.370;2023-09-18T15:39:03;24.20;69.10
20487;DHT22;10402;49.012;8.370;2023-09-18T15:41:28;24.20;69.10
20487;DHT22;10402;49.012;8.370;2023-09-18T15:43:54;24.20;69.10
20487;DHT22;10402;49.012;8.370;2023-09-18T15:46:20;24.20;69.00
20487;DHT22;10402;49.012;8.370;2023-09-18T15:48:45;24.10;69.60
20487;DHT22;10402;49.012;8.370;2023-09-18T15:51:11;24.20;69.80
20487;DHT22;10402;49.012;8.370;2023-09-18T15:53:37;24.20;69.00
20487;DHT22;10402;49.012;8.370;2023-09-18T15:56:02;24.10;68.90